createdAt,value
2019-06-27T00:03:26.629Z,3.45
2019-06-27T00:08:34.488Z,3.05
2019-06-27T00:13:47.131Z,3.15
2019-06-27T00:18:53.090Z,3.37
2019-06-27T00:24:00.437Z,3.62
2019-06-27T00:29:08.286Z,3.27
2019-06-27T00:34:12.412Z,3.72
2019-06-27T00:39:30.953Z,3.10
2019-06-27T00:44:39.645Z,3.45
2019-06-27T00:49:52.220Z,3.02
2019-06-27T00:55:04.522Z,3.12
2019-06-27T01:00:13.734Z,3.08
2019-06-27T01:05:27.623Z,3.00
2019-06-27T01:10:31.733Z,3.25
2019-06-27T01:15:36.428Z,3.27
2019-06-27T01:20:48.608Z,3.12
2019-06-27T01:25:56.901Z,3.10
2019-06-27T01:31:02.846Z,3.07
2019-06-27T01:36:15.014Z,3.40
2019-06-27T01:41:19.804Z,3.00
2019-06-27T01:46:23.921Z,3.17
2019-06-27T01:51:36.310Z,3.10
2019-06-27T01:56:58.904Z,3.05
2019-06-27T02:02:10.309Z,3.43
2019-06-27T02:07:20.940Z,3.07
2019-06-27T02:12:27.561Z,3.10
2019-06-27T02:17:37.839Z,2.90
2019-06-27T02:22:44.770Z,2.60
2019-06-27T02:28:03.167Z,3.00
2019-06-27T02:32:59.537Z,3.17
2019-06-27T02:38:03.676Z,2.80
2019-06-27T02:43:11.046Z,3.00
2019-06-27T02:48:15.229Z,2.43
2019-06-27T02:53:22.473Z,2.87
2019-06-27T02:58:31.850Z,2.90
2019-06-27T03:03:35.443Z,3.00
2019-06-27T03:08:41.422Z,3.00
2019-06-27T03:13:48.242Z,2.93
2019-06-27T03:18:52.620Z,3.10
2019-06-27T03:24:00.395Z,3.00
2019-06-27T03:29:05.146Z,2.47
2019-06-27T03:34:09.285Z,2.80
2019-06-27T03:39:13.726Z,2.33
2019-06-27T03:44:22.784Z,2.97
2019-06-27T03:49:28.165Z,2.60
2019-06-27T03:54:36.117Z,2.60
2019-06-27T03:59:41.265Z,2.53
2019-06-27T04:04:45.853Z,2.63
2019-06-27T04:09:51.768Z,2.60
2019-06-27T04:14:57.493Z,2.80
2019-06-27T04:20:01.698Z,2.90
2019-06-27T04:25:06.180Z,2.73
2019-06-27T04:30:10.453Z,2.83
2019-06-27T04:35:16.228Z,2.93
2019-06-27T04:40:27.749Z,2.63
2019-06-27T04:45:31.949Z,2.43
2019-06-27T04:50:38.471Z,2.70
2019-06-27T04:55:42.635Z,2.87
2019-06-27T05:00:48.010Z,2.37
2019-06-27T05:05:52.113Z,3.07
2019-06-27T05:10:56.230Z,2.83
2019-06-27T05:16:01.954Z,2.80
2019-06-27T05:21:06.069Z,2.50
2019-06-27T05:26:11.500Z,2.53
2019-06-27T05:31:18.670Z,2.43
2019-06-27T05:36:22.791Z,2.50
2019-06-27T05:41:27.408Z,2.03
2019-06-27T05:46:31.513Z,1.67
2019-06-27T05:51:36.644Z,2.00
2019-06-27T05:56:43.267Z,1.83
2019-06-27T06:01:50.625Z,1.80
2019-06-27T06:06:58.835Z,1.57
2019-06-27T06:12:02.946Z,1.70
2019-06-27T06:17:14.498Z,1.87
2019-06-27T06:22:18.597Z,1.67
2019-06-27T06:27:22.974Z,1.77
2019-06-27T06:32:30.333Z,1.57
2019-06-27T06:37:35.087Z,1.70
2019-06-27T06:42:40.268Z,1.80
2019-06-27T06:47:47.783Z,1.60
2019-06-27T06:52:53.515Z,1.62
2019-06-27T06:57:57.714Z,1.52
2019-06-27T07:03:04.574Z,1.50
2019-06-27T07:08:17.706Z,1.60
2019-06-27T07:13:24.883Z,2.05
2019-06-27T07:18:29.261Z,1.50
2019-06-27T07:23:34.984Z,1.50
2019-06-27T07:28:39.341Z,1.50
2019-06-27T07:33:43.461Z,1.47
2019-06-27T07:38:51.741Z,1.55
2019-06-27T07:43:55.854Z,1.65
2019-06-27T07:48:59.984Z,1.50
2019-06-27T07:54:04.258Z,1.20
2019-06-27T07:59:08.380Z,1.35
2019-06-27T08:04:12.719Z,1.20
2019-06-27T08:09:17.917Z,1.50
2019-06-27T08:14:22.827Z,1.40
2019-06-27T08:19:32.976Z,1.42
2019-06-27T08:24:38.784Z,1.50
2019-06-27T08:29:43.828Z,1.32
2019-06-27T08:34:49.783Z,1.45
2019-06-27T08:39:56.697Z,1.00
2019-06-27T08:45:01.085Z,1.40
2019-06-27T08:50:10.079Z,1.30
2019-06-27T08:55:16.076Z,1.40
2019-06-27T09:00:45.864Z,1.15
2019-06-27T09:05:54.183Z,1.10
2019-06-27T09:11:00.253Z,1.22
2019-06-27T09:16:04.416Z,1.20
2019-06-27T09:21:08.754Z,1.30
2019-06-27T09:26:14.134Z,1.20
2019-06-27T09:31:20.130Z,0.95
2019-06-27T09:36:26.740Z,1.15
2019-06-27T09:41:32.800Z,1.15
2019-06-27T09:46:37.318Z,1.20
2019-06-27T09:51:41.744Z,1.40
2019-06-27T09:56:46.497Z,1.30
2019-06-27T10:01:52.832Z,1.17
2019-06-27T10:06:57.057Z,1.50
2019-06-27T10:12:03.069Z,1.10
2019-06-27T10:17:10.196Z,1.02
2019-06-27T10:22:14.645Z,1.22
2019-06-27T10:27:18.888Z,1.07
2019-06-27T10:32:23.069Z,1.02
2019-06-27T10:37:29.090Z,1.10
2019-06-27T10:42:36.106Z,1.30
2019-06-27T10:47:40.693Z,1.30
2019-06-27T10:52:44.921Z,1.17
2019-06-27T10:57:56.479Z,1.40
2019-06-27T11:03:14.316Z,1.10
2019-06-27T11:08:09.335Z,1.20
2019-06-27T11:13:16.565Z,1.10
2019-06-27T11:18:24.314Z,1.25
2019-06-27T11:23:29.542Z,1.10
2019-06-27T11:28:38.919Z,1.27
2019-06-27T11:34:10.065Z,0.90
2019-06-27T11:39:23.285Z,1.25
2019-06-27T11:44:41.227Z,1.10
2019-06-27T11:49:42.722Z,0.98
2019-06-27T11:54:50.573Z,1.22
2019-06-27T11:59:57.937Z,1.22
2019-06-27T12:05:08.261Z,1.40
2019-06-27T12:10:14.036Z,1.22
2019-06-27T12:15:18.381Z,1.60
2019-06-27T12:20:22.700Z,1.30
2019-06-27T12:25:27.219Z,1.32
2019-06-27T12:30:31.639Z,1.12
2019-06-27T12:35:37.073Z,1.20
2019-06-27T12:40:41.944Z,1.40
2019-06-27T12:45:48.169Z,1.42
2019-06-27T12:50:52.889Z,1.35
2019-06-27T12:55:57.652Z,1.45
2019-06-27T13:01:07.250Z,1.32
2019-06-27T13:06:17.787Z,1.70
2019-06-27T13:11:22.155Z,1.70
2019-06-27T13:16:32.225Z,1.30
2019-06-27T13:21:36.472Z,1.35
2019-06-27T13:26:41.101Z,1.32
2019-06-27T13:31:45.743Z,1.32
2019-06-27T13:36:50.725Z,1.32
2019-06-27T13:41:56.127Z,1.50
2019-06-27T13:47:00.510Z,1.40
2019-06-27T13:52:07.013Z,1.60
2019-06-27T13:57:11.499Z,1.30
2019-06-27T14:02:15.916Z,1.50
2019-06-27T14:07:22.654Z,1.45
2019-06-27T14:12:28.906Z,1.62
2019-06-27T14:17:33.244Z,1.20
2019-06-27T14:22:37.586Z,1.40
2019-06-27T14:27:42.498Z,1.30
2019-06-27T14:32:54.738Z,1.50
2019-06-27T14:38:01.567Z,1.50
2019-06-27T14:43:05.917Z,1.60
2019-06-27T14:48:10.985Z,1.40
2019-06-27T14:53:15.598Z,1.50
2019-06-27T14:58:23.550Z,1.67
2019-06-27T15:03:43.879Z,1.82
2019-06-27T15:08:51.784Z,1.37
2019-06-27T15:14:32.844Z,1.60
2019-06-27T15:19:40.090Z,1.50
2019-06-27T15:24:44.526Z,1.40
2019-06-27T15:29:56.364Z,1.40
2019-06-27T15:35:00.707Z,1.40
2019-06-27T15:40:07.126Z,1.50
2019-06-27T15:45:15.063Z,1.20
2019-06-27T15:50:19.415Z,1.60
2019-06-27T15:55:33.048Z,1.30
2019-06-27T16:00:40.809Z,1.20
2019-06-27T16:05:45.474Z,1.12
2019-06-27T16:10:49.763Z,1.32
2019-06-27T16:15:54.150Z,1.20
2019-06-27T16:20:58.561Z,1.10
2019-06-27T16:26:04.585Z,1.20
2019-06-27T16:31:09.439Z,1.20
2019-06-27T16:36:24.819Z,1.10
2019-06-27T16:41:24.258Z,0.93
2019-06-27T16:46:28.578Z,1.25
2019-06-27T16:51:33.006Z,1.20
2019-06-27T16:56:37.501Z,1.27
2019-06-27T17:01:41.949Z,1.37
2019-06-27T17:06:50.061Z,1.30
2019-06-27T17:11:54.563Z,1.10
2019-06-27T17:17:01.437Z,1.20
2019-06-27T17:22:09.299Z,1.10
2019-06-27T17:27:15.512Z,1.27
2019-06-27T17:32:21.207Z,1.20
2019-06-27T17:37:25.525Z,1.37
2019-06-27T17:42:31.491Z,1.10
2019-06-27T17:47:35.741Z,1.20
2019-06-27T17:52:46.954Z,1.40
2019-06-27T17:57:51.113Z,1.50
2019-06-27T18:02:55.813Z,1.30
2019-06-27T18:08:00.185Z,1.50
2019-06-27T18:13:08.716Z,1.72
2019-06-27T18:18:18.945Z,1.30
2019-06-27T18:23:24.782Z,1.42
2019-06-27T18:28:52.702Z,1.42
2019-06-27T18:34:12.171Z,1.20
2019-06-27T18:39:18.285Z,1.20
2019-06-27T18:44:23.544Z,1.10
2019-06-27T18:49:31.440Z,1.60
2019-06-27T18:54:36.213Z,1.10
2019-06-27T18:59:42.941Z,1.12
2019-06-27T19:04:47.537Z,1.30
2019-06-27T19:09:53.603Z,1.10
2019-06-27T19:15:00.911Z,1.60
2019-06-27T19:20:09.608Z,1.27
2019-06-27T19:25:26.072Z,1.20
2019-06-27T19:30:30.197Z,1.90
2019-06-27T19:35:34.427Z,1.40
2019-06-27T19:40:38.626Z,1.40
2019-06-27T19:45:42.777Z,1.20
2019-06-27T19:50:47.221Z,1.37
2019-06-27T19:55:52.212Z,1.15
2019-06-27T20:00:56.627Z,1.22
2019-06-27T20:06:00.735Z,1.15
2019-06-27T20:11:06.783Z,1.37
2019-06-27T20:16:10.904Z,1.10
2019-06-27T20:21:17.409Z,1.05
2019-06-27T20:26:25.669Z,1.05
2019-06-27T20:31:31.477Z,1.10
2019-06-27T20:36:50.064Z,1.30
2019-06-27T20:41:58.612Z,1.20
2019-06-27T20:47:13.384Z,0.98
2019-06-27T20:52:42.640Z,0.88
2019-06-27T20:57:47.772Z,1.15
2019-06-27T21:02:54.949Z,1.90
2019-06-27T21:08:50.737Z,0.93
2019-06-27T21:13:46.048Z,1.25
2019-06-27T21:18:55.299Z,0.97
2019-06-27T21:23:59.438Z,1.23
2019-06-27T21:29:03.611Z,0.90
2019-06-27T21:34:09.915Z,1.30
2019-06-27T21:39:14.012Z,1.00
2019-06-27T21:44:18.477Z,1.17
2019-06-27T21:49:24.342Z,1.00
2019-06-27T21:54:30.110Z,0.90
2019-06-27T21:59:35.869Z,0.90
2019-06-27T22:04:40.636Z,1.10
2019-06-27T22:09:44.847Z,1.07
2019-06-27T22:14:49.546Z,1.10
2019-06-27T22:19:53.676Z,1.20
2019-06-27T22:25:04.891Z,1.20
2019-06-27T22:30:10.010Z,1.00
2019-06-27T22:35:19.610Z,1.53
2019-06-27T22:40:43.636Z,1.23
2019-06-27T22:46:06.088Z,1.23
2019-06-27T22:51:35.349Z,1.27
2019-06-27T22:56:46.773Z,1.30
2019-06-27T23:01:51.181Z,1.40
2019-06-27T23:06:59.304Z,1.53
2019-06-27T23:12:05.417Z,1.30
2019-06-27T23:17:09.785Z,1.43
2019-06-27T23:22:13.857Z,1.73
2019-06-27T23:27:21.531Z,1.47
2019-06-27T23:32:28.201Z,1.40
2019-06-27T23:37:49.423Z,1.30
2019-06-27T23:42:55.253Z,1.37
2019-06-27T23:48:02.081Z,1.40
2019-06-27T23:53:06.428Z,1.53
2019-06-27T23:58:17.433Z,1.70
